• Join FlightAware (Why Join?)
  • Login
  • US Flag 
12:35AM EDT


 

Airport Tracker/Info


-or-


 

Live Flight TrackerFlight Track Log ✈ AWE1693 ✈ 27-Jul-2013 ✈ KCLT - TKPK / SKB

Flight Track Log - Related Links

Times and Time Zones

All times are in EDT time to prevent confusion due to time zone crossing. See the AWE1693 flight status page for this flight to view local times or setup timezone preferences in your user account.

Time Position Orientation Groundspeed Altitude Reporting Facility
EDT Latitude Longitude Course Direction KTS MPH feet Rate Location/Type
01:39PM 35.2394 -80.9567 215° Southwest 167 192 2,200  Level Atlanta Center
01:40PM 35.2678 -81.0117 302° West 210 242 3,900 2,280 Climbing Atlanta Center
01:42PM 34.8679 -80.5001 180° South  Level Estimated
01:42PM 35.2072 -81.0114 180° South 203 234 7,300  Level Atlanta Center
01:43PM 34.7522 -80.3513 165° South  Level Estimated
01:43PM 35.1456 -80.9653 149° Southeast 200 230 9,800  Level Atlanta Center
01:44PM 34.6364 -80.2029 175° South  Level Estimated
01:44PM 35.0681 -80.9453 168° South 252 290 11,500  Level Atlanta Center
01:45PM 34.4979 -80.3188 215° Southwest  Level FlightAware Approximate
01:46PM 34.8767 -80.9214 174° South 331 381 16,300  Level Jacksonville Center
01:47PM 34.7783 -80.9083 174° South 353 406 17,800 1,680 Climbing Jacksonville Center
01:48PM 34.6758 -80.8956 174° South 364 419 19,700 1,560 Climbing Jacksonville Center
01:49PM 34.5694 -80.8831 174° South 385 443 21,000 1,320 Climbing Jacksonville Center
01:50PM 34.4525 -80.8731 176° South 411 473 22,400 1,440 Climbing Jacksonville Center
01:51PM 34.3378 -80.8858 185° South 411 473 23,900 1,440 Climbing Jacksonville Center
01:52PM 34.2233 -80.8961 184° South 416 479 25,300 1,140 Climbing Jacksonville Center
01:53PM 34.1064 -80.8936 179° South 421 484 26,200 900 Climbing Jacksonville Center
01:54PM 33.9872 -80.8789 174° South 431 496 27,200 1,020 Climbing Jacksonville Center
01:55PM 33.8697 -80.8342 162° South 431 496 28,300 900 Climbing Jacksonville Center
01:56PM 33.7558 -80.7642 153° Southeast 443 510 29,100 840 Climbing Jacksonville Center
01:57PM 33.6481 -80.6794 147° Southeast 458 527 30,000 1,080 Climbing Jacksonville Center
01:58PM 33.5339 -80.6003 150° Southeast 465 535 31,300 1,380 Climbing Jacksonville Center
01:59PM 33.4258 -80.5158 147° Southeast 465 535 32,800 840 Climbing Jacksonville Center
02:00PM 33.3239 -80.4217 142° Southeast 465 535 33,000 360 Climbing Jacksonville Center
02:01PM 33.2525 -80.2919 123° Southeast 449 517 33,600 780 Climbing Jacksonville Center
02:02PM 33.2033 -80.1469 112° Southeast 459 528 34,600 660 Climbing Jacksonville Center
02:03PM 33.1419 -80.0050 117° Southeast 471 542 35,000 180 Climbing Jacksonville Center
02:04PM 33.0908 -79.8803 116° Southeast 477 549 35,000  Level Jacksonville Center
02:05PM 33.0353 -79.7408 115° Southeast 472 543 35,000  Level Jacksonville Center
02:06PM 32.9775 -79.5992 116° Southeast 472 543 35,000  Level Jacksonville Center
02:07PM 32.9217 -79.4603 116° Southeast 467 537 35,000  Level Jacksonville Center
02:08PM 32.8656 -79.3214 116° Southeast 467 537 35,000  Level Jacksonville Center
02:09PM 32.8094 -79.1803 115° Southeast 462 532 35,000  Level Jacksonville Center
02:10PM 32.7531 -79.0419 116° Southeast 462 532 35,000  Level Jacksonville Center
02:11PM 32.6967 -78.9061 116° Southeast 467 537 35,000 240 Level Jacksonville Center
02:12PM 32.6400 -78.7656 116° Southeast 467 537 35,500 480 Climbing Jacksonville Center
02:13PM 32.5833 -78.6300 116° Southeast 461 531 36,000 240 Climbing Jacksonville Center
02:14PM 32.5242 -78.4925 117° Southeast 461 531 36,000 -60 Level Jacksonville Center
02:15PM 32.4692 -78.3547 115° Southeast 461 531 35,900  Descending Jacksonville Center
02:16PM 32.4122 -78.2172 116° Southeast 461 531 36,000  Climbing Jacksonville Center
02:17PM 32.3569 -78.0825 116° Southeast 461 531 36,000  Level Jacksonville Center
02:18PM 32.3017 -77.9478 116° Southeast 461 531 36,000  Level Jacksonville Center
02:19PM 32.2261 -77.8317 128° Southeast 454 522 36,000 300 Level Jacksonville Center
02:20PM 32.1303 -77.7339 139° Southeast 454 522 36,600 480 Climbing Jacksonville Center
02:21PM 32.0306 -77.6439 143° Southeast 447 514 37,000 180 Climbing Jacksonville Center
02:22PM 31.9347 -77.5467 139° Southeast 452 520 37,000  Level Jacksonville Center
02:23PM 31.8347 -77.4522 141° Southeast 452 520 37,000  Level Jacksonville Center
02:24PM 31.7367 -77.3603 141° Southeast 452 520 37,000  Level Jacksonville Center
02:25PM 31.6386 -77.2636 140° Southeast 463 533 37,000 -60 Level Jacksonville Center
02:26PM 31.5294 -77.1581 140° Southeast 463 533 36,900  Descending Jacksonville Center
02:27PM 31.4403 -77.0783 143° Southeast 463 533 37,000  Climbing Jacksonville Center
02:28PM 31.3269 -76.9714 141° Southeast 469 540 37,000  Level Jacksonville Center
02:29PM 31.3500 -77.0000 140° Southeast 462 532 37,000  Level New York Oceanic (ODAPS)
02:35PM 30.6556 -76.3331 141° Southeast 462 532 37,000  Level FlightAware Transoceanic
02:36PM 30.5561 -76.2386 141° Southeast 462 532 37,000  Level FlightAware Transoceanic
02:37PM 30.4565 -76.1443 141° Southeast 462 532 37,000  Level FlightAware Transoceanic
02:38PM 30.3569 -76.0502 141° Southeast 462 532 37,000  Level FlightAware Transoceanic
02:39PM 30.2572 -75.9563 141° Southeast 462 532 37,000  Level FlightAware Transoceanic
02:40PM 30.1575 -75.8625 141° Southeast 462 532 37,000  Level FlightAware Transoceanic
02:41PM 30.0577 -75.7690 141° Southeast 462 532 37,000  Level FlightAware Transoceanic
02:42PM 29.9578 -75.6757 141° Southeast 462 532 37,000  Level FlightAware Transoceanic
02:43PM 29.8578 -75.5825 141° Southeast 462 532 37,000  Level FlightAware Transoceanic
02:44PM 29.7578 -75.4895 141° Southeast 462 532 37,000  Level FlightAware Transoceanic
02:45PM 29.6577 -75.3967 141° Southeast 462 532 37,000  Level FlightAware Transoceanic
02:46PM 29.5576 -75.3041 141° Southeast 462 532 37,000  Level FlightAware Transoceanic
02:47PM 29.4574 -75.2117 141° Southeast 462 532 37,000  Level FlightAware Transoceanic
02:48PM 29.3571 -75.1195 141° Southeast 462 532 37,000  Level FlightAware Transoceanic
02:49PM 29.2568 -75.0274 141° Southeast 462 532 37,000  Level FlightAware Transoceanic
02:50PM 29.1564 -74.9356 141° Southeast 462 532 37,000  Level FlightAware Transoceanic
02:51PM 29.0559 -74.8439 141° Southeast 462 532 37,000  Level FlightAware Transoceanic
02:52PM 28.9554 -74.7523 141° Southeast 462 532 37,000  Level FlightAware Transoceanic
02:53PM 28.8548 -74.6610 142° Southeast 462 532 37,000  Level FlightAware Transoceanic
02:54PM 28.7541 -74.5698 142° Southeast 462 532 37,000  Level FlightAware Transoceanic
02:55PM 28.6534 -74.4789 142° Southeast 462 532 37,000  Level FlightAware Transoceanic
02:56PM 28.5527 -74.3881 142° Southeast 462 532 37,000  Level FlightAware Transoceanic
02:57PM 28.4518 -74.2974 142° Southeast 462 532 37,000  Level FlightAware Transoceanic
02:58PM 28.3510 -74.2070 142° Southeast 462 532 37,000  Level FlightAware Transoceanic
02:59PM 28.2500 -74.1167 149° Southeast 462 532 37,000  Level FlightAware Transoceanic
03:00PM 28.1385 -74.0416 149° Southeast 462 532 37,000  Level FlightAware Transoceanic
03:01PM 28.0269 -73.9667 149° Southeast 462 532 37,000  Level FlightAware Transoceanic
03:02PM 27.9153 -73.8920 149° Southeast 462 532 37,000  Level FlightAware Transoceanic
03:02PM 28.2500 -74.1167 149° Southeast 466 536 37,000  Level New York Oceanic (ODAPS)
03:03PM 27.8036 -73.8174 149° Southeast 462 532 37,000  Level FlightAware Transoceanic
03:04PM 27.6919 -73.7430 149° Southeast 462 532 37,000  Level FlightAware Transoceanic
03:05PM 27.5802 -73.6687 150° Southeast 462 532 37,000  Level FlightAware Transoceanic
03:06PM 27.4684 -73.5945 150° Southeast 462 532 37,000  Level FlightAware Transoceanic
03:07PM 27.3566 -73.5206 150° Southeast 462 532 37,000  Level FlightAware Transoceanic
03:08PM 27.2448 -73.4467 150° Southeast 462 532 37,000  Level FlightAware Transoceanic
03:09PM 27.1329 -73.3730 150° Southeast 466 536 37,000  Level FlightAware Transoceanic
03:10PM 27.0210 -73.2995 150° Southeast 466 536 37,000  Level FlightAware Transoceanic
03:11PM 26.9090 -73.2261 150° Southeast 466 536 37,000  Level FlightAware Transoceanic
03:12PM 26.7970 -73.1529 150° Southeast 466 536 37,000  Level FlightAware Transoceanic
03:13PM 26.6849 -73.0798 150° Southeast 466 536 37,000  Level FlightAware Transoceanic
03:14PM 26.5729 -73.0068 150° Southeast 466 536 37,000  Level FlightAware Transoceanic
03:15PM 26.4608 -72.9340 150° Southeast 466 536 37,000  Level FlightAware Transoceanic
03:16PM 26.3486 -72.8613 150° Southeast 466 536 37,000  Level FlightAware Transoceanic
03:17PM 26.2364 -72.7888 150° Southeast 466 536 37,000  Level FlightAware Transoceanic
03:18PM 26.1242 -72.7164 150° Southeast 466 536 37,000  Level FlightAware Transoceanic
03:19PM 26.0119 -72.6442 150° Southeast 466 536 37,000  Level FlightAware Transoceanic
03:20PM 25.8996 -72.5721 150° Southeast 466 536 37,000  Level FlightAware Transoceanic
03:21PM 25.7873 -72.5001 150° Southeast 466 536 37,000  Level FlightAware Transoceanic
03:22PM 25.6749 -72.4282 150° Southeast 466 536 37,000  Level FlightAware Transoceanic
03:23PM 25.5625 -72.3565 150° Southeast 466 536 37,000  Level FlightAware Transoceanic
03:24PM 25.4501 -72.2850 150° Southeast 466 536 37,000  Level FlightAware Transoceanic
03:25PM 25.3376 -72.2135 150° Southeast 466 536 37,000  Level FlightAware Transoceanic
03:26PM 25.2251 -72.1422 150° Southeast 466 536 37,000  Level FlightAware Transoceanic
03:27PM 25.1126 -72.0710 150° Southeast 466 536 37,000  Level FlightAware Transoceanic
03:28PM 25.0000 -72.0000 139° Southeast 466 536 37,000  Level FlightAware Transoceanic
03:28PM 24.9414 -71.9644 139° Southeast 451 519 37,000  Level Miami Center
03:29PM 24.8464 -71.8722 139° Southeast 451 519 37,000  Level Miami Center
03:30PM 24.7511 -71.7753 137° Southeast 457 526 37,000  Level Miami Center
03:31PM 24.6522 -71.6903 142° Southeast 462 532 37,000  Level Miami Center
03:32PM 24.5547 -71.5894 137° Southeast 462 532 37,000  Level Miami Center
03:33PM 24.4536 -71.5094 144° Southeast 463 533 37,000  Level Miami Center
03:34PM 24.3558 -71.4019 135° Southeast 470 541 37,000  Level Miami Center
03:35PM 24.2606 -71.3128 140° Southeast 471 542 37,000  Level Miami Center
03:36PM 24.1611 -71.2194 139° Southeast 473 544 37,000  Level Miami Center
03:37PM 24.0614 -71.1214 138° Southeast 473 544 37,000  Level Miami Center
03:38PM 23.9633 -71.0214 137° Southeast 475 547 37,000  Level Miami Center
03:39PM 23.8636 -70.9242 138° Southeast 475 547 37,000  Level Miami Center
03:40PM 23.7664 -70.8447 143° Southeast 470 541 37,000  Level Miami Center
03:41PM 23.6636 -70.7294 134° Southeast 476 548 37,000  Level Miami Center
03:42PM 23.5661 -70.6436 141° Southeast 476 548 37,000  Level Miami Center
03:43PM 23.4664 -70.5536 140° Southeast 476 548 37,000  Level Miami Center
03:44PM 23.3575 -70.4436 137° Southeast 476 548 37,000  Level Miami Center
03:45PM 23.2597 -70.3536 140° Southeast 476 548 37,000  Level Miami Center
03:46PM 23.1619 -70.2639 140° Southeast 471 542 37,000  Level Miami Center
03:47PM 23.0594 -70.1633 138° Southeast 481 554 37,000  Level Miami Center
03:48PM 22.9639 -70.0803 141° Southeast 469 540 37,000  Level Miami Center
03:49PM 22.8681 -69.9886 139° Southeast 469 540 37,000  Level Miami Center
03:50PM 22.7678 -69.8950 139° Southeast 469 540 37,000  Level Miami Center
03:51PM 22.6719 -69.8058 139° Southeast 476 548 37,000  Level Miami Center
03:52PM 22.5694 -69.7103 139° Southeast 471 542 37,000  Level Miami Center
03:53PM 22.4733 -69.6189 139° Southeast 471 542 37,000  Level Miami Center
03:54PM 22.3753 -69.5303 140° Southeast 471 542 37,000  Level Miami Center
03:55PM 22.2811 -69.4414 139° Southeast 466 536 37,000  Level Miami Center
03:56PM 22.1786 -69.3489 140° Southeast 466 536 37,000  Level Miami Center
03:57PM 22.0850 -69.2647 140° Southeast 466 536 37,000  Level Miami Center
03:58PM 21.9906 -69.1739 138° Southeast 461 531 37,000  Level Miami Center
03:59PM 21.8944 -69.0858 140° Southeast 461 531 37,000  Level Miami Center
04:00PM 21.7942 -68.9958 140° Southeast 456 525 37,000  Level Miami Center
04:01PM 21.6978 -68.9078 140° Southeast 451 519 37,000  Level Miami Center
04:02PM 21.6017 -68.8200 140° Southeast 451 519 37,000  Level Miami Center
04:03PM 21.5031 -68.7303 140° Southeast 456 525 37,000  Level Miami Center
04:04PM 21.4108 -68.6425 138° Southeast 451 519 37,000  Level Miami Center
04:05PM 21.2939 -68.5583 146° Southeast 487 560 37,000  Level Miami Center
04:06PM 21.2183 -68.4675 132° Southeast 446 513 37,000  Level Miami Center
04:07PM 21.1178 -68.3806 141° Southeast 453 521 37,000  Level Miami Center
04:08PM 21.0256 -68.2956 139° Southeast 448 516 37,000  Level Miami Center
04:09PM 20.9436 -68.2075 135° Southeast 441 507 37,000  Level Miami Center
04:10PM 20.8369 -68.1258 144° Southeast 446 513 37,000  Level Miami Center
04:11PM 20.7486 -68.0342 136° Southeast 446 513 37,000  Level Miami Center
04:12PM 20.6858 -67.9186 120° Southeast 446 513 37,000  Level Miami Center
04:13PM 20.6269 -67.8033 119° Southeast 446 513 37,000  Level Miami Center
04:14PM 20.5661 -67.6858 119° Southeast 446 513 37,000  Level Miami Center
04:15PM 20.5050 -67.6061 129° Southeast 446 513 37,000  Level Miami Center
04:16PM 20.4167 -67.5000 132° Southeast 430 495 37,000  Level San Juan Center
04:17PM 20.3333 -67.4000 132° Southeast 430 495 37,000  Level San Juan Center
04:18PM 20.2500 -67.3000 132° Southeast 440 506 37,000  Level San Juan Center
04:19PM 20.1833 -67.1833 121° Southeast 430 495 37,000  Level San Juan Center
04:20PM 20.1000 -67.0667 127° Southeast 450 518 37,000  Level San Juan Center
04:21PM 20.0333 -66.9833 130° Southeast 440 506 37,000  Level San Juan Center
04:22PM 19.9500 -66.8500 124° Southeast 450 518 37,000  Level San Juan Center
04:23PM 19.8667 -66.7667 137° Southeast 450 518 37,000  Level San Juan Center
04:24PM 19.7833 -66.6500 127° Southeast 440 506 37,000  Level San Juan Center
04:25PM 19.7167 -66.5500 125° Southeast 440 506 37,000 -360 Level San Juan Center
04:26PM 19.6500 -66.4500 125° Southeast 430 495 36,300 -1,020 Descending San Juan Center
04:27PM 19.5667 -66.3500 131° Southeast 450 518 35,000 -900 Descending San Juan Center
04:28PM 19.4833 -66.2333 127° Southeast 450 518 34,500 -840 Descending San Juan Center
04:29PM 19.4000 -66.1333 131° Southeast 450 518 33,400 -1,200 Descending San Juan Center
04:30PM 19.3333 -66.0333 125° Southeast 460 529 32,100 -1,200 Descending San Juan Center
04:31PM 19.2500 -65.9333 131° Southeast 450 518 31,100 -540 Descending San Juan Center
04:32PM 19.1667 -65.8167 127° Southeast 470 541 31,100  Level San Juan Center
04:33PM 19.0833 -65.7167 131° Southeast 460 529 31,100  Level San Juan Center
04:34PM 19.0000 -65.6000 127° Southeast 470 541 31,100  Level San Juan Center
04:35PM 18.9167 -65.5000 131° Southeast 460 529 31,100  Level San Juan Center
04:36PM 18.8333 -65.3833 127° Southeast 460 529 31,100  Level San Juan Center
04:37PM 18.7667 -65.2833 125° Southeast 460 529 31,100  Level San Juan Center
04:38PM 18.6833 -65.1833 131° Southeast 460 529 31,100  Level San Juan Center
04:39PM 18.6000 -65.0833 131° Southeast 460 529 31,100  Level San Juan Center
04:40PM 18.5167 -64.9667 127° Southeast 470 541 31,100  Level San Juan Center
04:41PM 18.4333 -64.8667 131° Southeast 480 552 31,100  Level San Juan Center
04:42PM 18.3500 -64.7500 127° Southeast 460 529 31,100 -60 Level San Juan Center
04:43PM 18.2667 -64.6500 131° Southeast 440 506 31,000 -660 Descending San Juan Center
04:44PM 18.2000 -64.5500 125° Southeast 440 506 29,800 -1,200 Descending San Juan Center
04:45PM 18.1167 -64.4500 131° Southeast 440 506 28,600 -1,200 Descending San Juan Center
04:46PM 18.0333 -64.3500 131° Southeast 450 518 27,400 -1,200 Descending San Juan Center
04:47PM 17.9667 -64.2500 125° Southeast 460 529 26,300 -1,200 Descending San Juan Center
04:48PM 17.8833 -64.1500 131° Southeast 450 518 25,100 -600 Descending San Juan Center
04:49PM 17.8000 -64.0500 131° Southeast 460 529 25,100 -180 Level San Juan Center
04:50PM 17.7167 -63.9333 127° Southeast 450 518 24,800 -1,980 Descending San Juan Center
04:51PM 17.6333 -63.8333 131° Southeast 440 506 21,200 -3,360 Descending San Juan Center
04:52PM 17.5667 -63.7500 130° Southeast 420 483 18,100 -2,820 Descending San Juan Center
04:53PM 17.5000 -63.6500 125° Southeast 400 460 15,600 -2,520 Descending San Juan Center
04:54PM 17.4667 -63.5500 109° East 380 437 13,100 -2,340 Descending San Juan Center
04:55PM 17.4333 -63.4500 109° East 360 414 10,900 -1,500 Descending San Juan Center
04:57PM 17.4000 -63.2667 101° East 280 322 8,700 -1,260 Descending San Juan Center
04:58PM 17.3833 -63.2000 105° East 270 311 7,100 -1,380 Descending San Juan Center
04:59PM 17.3667 -63.1333 105° East 260 299 6,000 -1,140 Descending San Juan Center
05:02PM 17.3493 -62.9986 118° Southeast  Level FlightAware Approximate
05:09PM 17.3112 -62.7187 North  Level Estimated
05:10PM 17.3112 -62.7187 North  Level Estimated